<?xml version="1.0" encoding="UTF-8" standalone="no" ?>
<gpx xmlns="http://www.topografix.com/GPX/1/1" xmlns:xsi="http://www.w3.org/2001/XMLSchema-instance" xsi:schemaLocation="http://www.topografix.com/GPX/1/1 http://www.topografix.com/GPX/1/1/gpx.xsd" version="1.1" creator="VisuGPX - https://www.visugpx.com">
  <metadata>
    <name>geocaching ovs</name>
    <desc><![CDATA[geocaching ovs
geocaching ovs]]></desc>
  </metadata>
  <trk>
    <name><![CDATA[ACTIVE LOG]]></name>
    <trkseg>
      <trkpt lat="48.69452" lon="2.03691">
        <ele>156.832153</ele>
        <time>2014-05-08T13:24:07Z</time>
      </trkpt>
      <trkpt lat="48.69452" lon="2.03691">
        <ele>156.832153</ele>
        <time>2014-05-08T13:24:08Z</time>
      </trkpt>
      <trkpt lat="48.69452" lon="2.03691">
        <ele>153.467651</ele>
        <time>2014-05-08T13:24:35Z</time>
      </trkpt>
      <trkpt lat="48.69452" lon="2.03691">
        <ele>153.467651</ele>
        <time>2014-05-08T13:24:42Z</time>
      </trkpt>
      <trkpt lat="48.69452" lon="2.03691">
        <ele>152.506348</ele>
        <time>2014-05-08T13:24:45Z</time>
      </trkpt>
      <trkpt lat="48.69452" lon="2.03691">
        <ele>148.661011</ele>
        <time>2014-05-08T13:25:00Z</time>
      </trkpt>
      <trkpt lat="48.69452" lon="2.03691">
        <ele>146.738403</ele>
        <time>2014-05-08T13:25:16Z</time>
      </trkpt>
      <trkpt lat="48.69452" lon="2.03691">
        <ele>146.257812</ele>
        <time>2014-05-08T13:25:36Z</time>
      </trkpt>
      <trkpt lat="48.69452" lon="2.03691">
        <ele>143.85437</ele>
        <time>2014-05-08T13:25:48Z</time>
      </trkpt>
      <trkpt lat="48.69452" lon="2.03691">
        <ele>143.85437</ele>
        <time>2014-05-08T13:26:09Z</time>
      </trkpt>
      <trkpt lat="48.69364" lon="2.03629">
        <ele>140.970459</ele>
        <time>2014-05-08T13:26:23Z</time>
      </trkpt>
      <trkpt lat="48.69364" lon="2.03629">
        <ele>140.489868</ele>
        <time>2014-05-08T13:26:25Z</time>
      </trkpt>
      <trkpt lat="48.69361" lon="2.03626">
        <ele>136.644653</ele>
        <time>2014-05-08T13:26:40Z</time>
      </trkpt>
      <trkpt lat="48.6933" lon="2.03605">
        <ele>135.683105</ele>
        <time>2014-05-08T13:26:59Z</time>
      </trkpt>
      <trkpt lat="48.6933" lon="2.03605">
        <ele>135.202515</ele>
        <time>2014-05-08T13:27:16Z</time>
      </trkpt>
      <trkpt lat="48.69302" lon="2.03586">
        <ele>138.086548</ele>
        <time>2014-05-08T13:27:31Z</time>
      </trkpt>
      <trkpt lat="48.69302" lon="2.03586">
        <ele>141.45105</ele>
        <time>2014-05-08T13:27:49Z</time>
      </trkpt>
      <trkpt lat="48.69277" lon="2.03569">
        <ele>140.489868</ele>
        <time>2014-05-08T13:28:03Z</time>
      </trkpt>
      <trkpt lat="48.69253" lon="2.03553">
        <ele>139.528442</ele>
        <time>2014-05-08T13:28:18Z</time>
      </trkpt>
      <trkpt lat="48.69246" lon="2.03549">
        <ele>143.373657</ele>
        <time>2014-05-08T13:28:32Z</time>
      </trkpt>
      <trkpt lat="48.69232" lon="2.03539">
        <ele>148.18042</ele>
        <time>2014-05-08T13:28:45Z</time>
      </trkpt>
      <trkpt lat="48.69216" lon="2.03529">
        <ele>149.141602</ele>
        <time>2014-05-08T13:28:58Z</time>
      </trkpt>
      <trkpt lat="48.69216" lon="2.03529">
        <ele>148.18042</ele>
        <time>2014-05-08T13:29:32Z</time>
      </trkpt>
      <trkpt lat="48.69216" lon="2.03529">
        <ele>149.141602</ele>
        <time>2014-05-08T13:29:50Z</time>
      </trkpt>
      <trkpt lat="48.69157" lon="2.03487">
        <ele>150.103027</ele>
        <time>2014-05-08T13:30:04Z</time>
      </trkpt>
      <trkpt lat="48.69139" lon="2.0346">
        <ele>150.103027</ele>
        <time>2014-05-08T13:30:19Z</time>
      </trkpt>
      <trkpt lat="48.69127" lon="2.03441">
        <ele>149.141602</ele>
        <time>2014-05-08T13:30:32Z</time>
      </trkpt>
      <trkpt lat="48.69125" lon="2.03438">
        <ele>151.064209</ele>
        <time>2014-05-08T13:30:37Z</time>
      </trkpt>
      <trkpt lat="48.69125" lon="2.03438">
        <ele>152.506348</ele>
        <time>2014-05-08T13:30:49Z</time>
      </trkpt>
      <trkpt lat="48.69125" lon="2.03438">
        <ele>152.986938</ele>
        <time>2014-05-08T13:30:56Z</time>
      </trkpt>
      <trkpt lat="48.69122" lon="2.034">
        <ele>154.428955</ele>
        <time>2014-05-08T13:31:01Z</time>
      </trkpt>
      <trkpt lat="48.69122" lon="2.034">
        <ele>154.909546</ele>
        <time>2014-05-08T13:31:11Z</time>
      </trkpt>
      <trkpt lat="48.69122" lon="2.034">
        <ele>155.870972</ele>
        <time>2014-05-08T13:31:29Z</time>
      </trkpt>
      <trkpt lat="48.69122" lon="2.034">
        <ele>158.754761</ele>
        <time>2014-05-08T13:31:45Z</time>
      </trkpt>
      <trkpt lat="48.69122" lon="2.034">
        <ele>159.235474</ele>
        <time>2014-05-08T13:32:09Z</time>
      </trkpt>
      <trkpt lat="48.69122" lon="2.034">
        <ele>159.235474</ele>
        <time>2014-05-08T13:32:20Z</time>
      </trkpt>
      <trkpt lat="48.69143" lon="2.03267">
        <ele>160.67749</ele>
        <time>2014-05-08T13:32:45Z</time>
      </trkpt>
      <trkpt lat="48.69143" lon="2.03267">
        <ele>160.67749</ele>
        <time>2014-05-08T13:33:06Z</time>
      </trkpt>
      <trkpt lat="48.69143" lon="2.03267">
        <ele>163.080811</ele>
        <time>2014-05-08T13:33:26Z</time>
      </trkpt>
      <trkpt lat="48.69143" lon="2.03267">
        <ele>164.042114</ele>
        <time>2014-05-08T13:33:40Z</time>
      </trkpt>
      <trkpt lat="48.69147" lon="2.03138">
        <ele>164.522705</ele>
        <time>2014-05-08T13:33:53Z</time>
      </trkpt>
      <trkpt lat="48.69147" lon="2.03138">
        <ele>162.119507</ele>
        <time>2014-05-08T13:34:12Z</time>
      </trkpt>
      <trkpt lat="48.69147" lon="2.03138">
        <ele>161.638916</ele>
        <time>2014-05-08T13:34:30Z</time>
      </trkpt>
      <trkpt lat="48.69147" lon="2.03138">
        <ele>159.716187</ele>
        <time>2014-05-08T13:34:50Z</time>
      </trkpt>
      <trkpt lat="48.69147" lon="2.03138">
        <ele>156.351562</ele>
        <time>2014-05-08T13:35:18Z</time>
      </trkpt>
      <trkpt lat="48.69147" lon="2.03138">
        <ele>156.351562</ele>
        <time>2014-05-08T13:35:26Z</time>
      </trkpt>
      <trkpt lat="48.69147" lon="2.03138">
        <ele>153.948364</ele>
        <time>2014-05-08T13:35:44Z</time>
      </trkpt>
      <trkpt lat="48.69147" lon="2.03138">
        <ele>153.948364</ele>
        <time>2014-05-08T13:36:01Z</time>
      </trkpt>
      <trkpt lat="48.69147" lon="2.03138">
        <ele>152.986938</ele>
        <time>2014-05-08T13:40:42Z</time>
      </trkpt>
      <trkpt lat="48.69147" lon="2.03138">
        <ele>153.467651</ele>
        <time>2014-05-08T13:41:04Z</time>
      </trkpt>
      <trkpt lat="48.69109" lon="2.03011">
        <ele>153.467651</ele>
        <time>2014-05-08T13:41:24Z</time>
      </trkpt>
      <trkpt lat="48.69109" lon="2.03011">
        <ele>154.428955</ele>
        <time>2014-05-08T13:41:50Z</time>
      </trkpt>
      <trkpt lat="48.69109" lon="2.03011">
        <ele>157.793579</ele>
        <time>2014-05-08T13:42:09Z</time>
      </trkpt>
      <trkpt lat="48.69109" lon="2.03011">
        <ele>159.235474</ele>
        <time>2014-05-08T13:42:36Z</time>
      </trkpt>
      <trkpt lat="48.69069" lon="2.02888">
        <ele>157.793579</ele>
        <time>2014-05-08T13:42:58Z</time>
      </trkpt>
      <trkpt lat="48.69069" lon="2.02888">
        <ele>159.716187</ele>
        <time>2014-05-08T13:43:20Z</time>
      </trkpt>
      <trkpt lat="48.69069" lon="2.02888">
        <ele>159.716187</ele>
        <time>2014-05-08T13:43:28Z</time>
      </trkpt>
      <trkpt lat="48.69069" lon="2.02888">
        <ele>159.235474</ele>
        <time>2014-05-08T13:43:43Z</time>
      </trkpt>
      <trkpt lat="48.69069" lon="2.02888">
        <ele>157.312866</ele>
        <time>2014-05-08T13:44:04Z</time>
      </trkpt>
      <trkpt lat="48.69029" lon="2.02767">
        <ele>154.909546</ele>
        <time>2014-05-08T13:44:22Z</time>
      </trkpt>
      <trkpt lat="48.69029" lon="2.02767">
        <ele>154.909546</ele>
        <time>2014-05-08T13:44:38Z</time>
      </trkpt>
      <trkpt lat="48.69029" lon="2.02767">
        <ele>155.870972</ele>
        <time>2014-05-08T13:44:58Z</time>
      </trkpt>
      <trkpt lat="48.69029" lon="2.02767">
        <ele>155.870972</ele>
        <time>2014-05-08T13:45:18Z</time>
      </trkpt>
      <trkpt lat="48.68987" lon="2.02646">
        <ele>157.793579</ele>
        <time>2014-05-08T13:45:38Z</time>
      </trkpt>
      <trkpt lat="48.68987" lon="2.02646">
        <ele>158.27417</ele>
        <time>2014-05-08T13:45:56Z</time>
      </trkpt>
      <trkpt lat="48.68987" lon="2.02646">
        <ele>160.196899</ele>
        <time>2014-05-08T13:49:20Z</time>
      </trkpt>
      <trkpt lat="48.68987" lon="2.02646">
        <ele>160.196899</ele>
        <time>2014-05-08T13:49:58Z</time>
      </trkpt>
      <trkpt lat="48.68987" lon="2.02646">
        <ele>164.042114</ele>
        <time>2014-05-08T13:50:49Z</time>
      </trkpt>
      <trkpt lat="48.68987" lon="2.02646">
        <ele>163.080811</ele>
        <time>2014-05-08T13:51:19Z</time>
      </trkpt>
      <trkpt lat="48.68987" lon="2.02646">
        <ele>163.080811</ele>
        <time>2014-05-08T13:51:55Z</time>
      </trkpt>
      <trkpt lat="48.68987" lon="2.02646">
        <ele>160.196899</ele>
        <time>2014-05-08T13:52:17Z</time>
      </trkpt>
      <trkpt lat="48.68987" lon="2.02646">
        <ele>157.312866</ele>
        <time>2014-05-08T13:52:36Z</time>
      </trkpt>
      <trkpt lat="48.68987" lon="2.02646">
        <ele>154.428955</ele>
        <time>2014-05-08T13:52:52Z</time>
      </trkpt>
      <trkpt lat="48.68987" lon="2.02646">
        <ele>152.025757</ele>
        <time>2014-05-08T13:53:05Z</time>
      </trkpt>
      <trkpt lat="48.69068" lon="2.027">
        <ele>149.622314</ele>
        <time>2014-05-08T13:53:21Z</time>
      </trkpt>
      <trkpt lat="48.69083" lon="2.02686">
        <ele>150.583618</ele>
        <time>2014-05-08T13:53:35Z</time>
      </trkpt>
      <trkpt lat="48.69102" lon="2.02672">
        <ele>148.18042</ele>
        <time>2014-05-08T13:53:59Z</time>
      </trkpt>
      <trkpt lat="48.69118" lon="2.02664">
        <ele>145.7771</ele>
        <time>2014-05-08T13:54:21Z</time>
      </trkpt>
      <trkpt lat="48.69129" lon="2.02658">
        <ele>144.815796</ele>
        <time>2014-05-08T13:54:41Z</time>
      </trkpt>
      <trkpt lat="48.69146" lon="2.0266">
        <ele>144.335205</ele>
        <time>2014-05-08T13:55:01Z</time>
      </trkpt>
      <trkpt lat="48.69156" lon="2.02667">
        <ele>142.893066</ele>
        <time>2014-05-08T13:55:19Z</time>
      </trkpt>
      <trkpt lat="48.69163" lon="2.02685">
        <ele>140.970459</ele>
        <time>2014-05-08T13:55:41Z</time>
      </trkpt>
      <trkpt lat="48.69175" lon="2.02706">
        <ele>141.45105</ele>
        <time>2014-05-08T13:56:02Z</time>
      </trkpt>
      <trkpt lat="48.69186" lon="2.02724">
        <ele>140.489868</ele>
        <time>2014-05-08T13:56:31Z</time>
      </trkpt>
      <trkpt lat="48.69195" lon="2.02754">
        <ele>138.567261</ele>
        <time>2014-05-08T13:56:52Z</time>
      </trkpt>
      <trkpt lat="48.69206" lon="2.02774">
        <ele>137.605835</ele>
        <time>2014-05-08T13:57:11Z</time>
      </trkpt>
      <trkpt lat="48.69217" lon="2.028">
        <ele>137.125244</ele>
        <time>2014-05-08T13:57:36Z</time>
      </trkpt>
      <trkpt lat="48.69234" lon="2.02794">
        <ele>134.721924</ele>
        <time>2014-05-08T13:57:54Z</time>
      </trkpt>
      <trkpt lat="48.6924" lon="2.02805">
        <ele>131.837891</ele>
        <time>2014-05-08T13:58:11Z</time>
      </trkpt>
      <trkpt lat="48.69242" lon="2.02834">
        <ele>130.876709</ele>
        <time>2014-05-08T13:58:32Z</time>
      </trkpt>
      <trkpt lat="48.69242" lon="2.02858">
        <ele>131.3573</ele>
        <time>2014-05-08T13:58:49Z</time>
      </trkpt>
      <trkpt lat="48.69247" lon="2.02868">
        <ele>132.318604</ele>
        <time>2014-05-08T13:59:05Z</time>
      </trkpt>
      <trkpt lat="48.6926" lon="2.02868">
        <ele>129.434692</ele>
        <time>2014-05-08T13:59:24Z</time>
      </trkpt>
      <trkpt lat="48.69268" lon="2.02869">
        <ele>129.915283</ele>
        <time>2014-05-08T13:59:42Z</time>
      </trkpt>
      <trkpt lat="48.69277" lon="2.02876">
        <ele>130.876709</ele>
        <time>2014-05-08T14:00:46Z</time>
      </trkpt>
      <trkpt lat="48.69278" lon="2.02889">
        <ele>133.760498</ele>
        <time>2014-05-08T14:02:53Z</time>
      </trkpt>
      <trkpt lat="48.69268" lon="2.02872">
        <ele>136.16394</ele>
        <time>2014-05-08T14:04:24Z</time>
      </trkpt>
      <trkpt lat="48.69255" lon="2.02871">
        <ele>140.009155</ele>
        <time>2014-05-08T14:05:08Z</time>
      </trkpt>
      <trkpt lat="48.69252" lon="2.02875">
        <ele>141.931763</ele>
        <time>2014-05-08T14:05:38Z</time>
      </trkpt>
      <trkpt lat="48.69245" lon="2.02882">
        <ele>144.335205</ele>
        <time>2014-05-08T14:06:26Z</time>
      </trkpt>
      <trkpt lat="48.69244" lon="2.02909">
        <ele>140.009155</ele>
        <time>2014-05-08T14:06:47Z</time>
      </trkpt>
      <trkpt lat="48.69249" lon="2.02927">
        <ele>136.16394</ele>
        <time>2014-05-08T14:07:06Z</time>
      </trkpt>
      <trkpt lat="48.69245" lon="2.02942">
        <ele>136.16394</ele>
        <time>2014-05-08T14:07:25Z</time>
      </trkpt>
      <trkpt lat="48.69248" lon="2.02972">
        <ele>135.202515</ele>
        <time>2014-05-08T14:07:44Z</time>
      </trkpt>
      <trkpt lat="48.69255" lon="2.02994">
        <ele>136.644653</ele>
        <time>2014-05-08T14:08:05Z</time>
      </trkpt>
      <trkpt lat="48.69257" lon="2.03005">
        <ele>138.086548</ele>
        <time>2014-05-08T14:08:29Z</time>
      </trkpt>
      <trkpt lat="48.69249" lon="2.03024">
        <ele>138.567261</ele>
        <time>2014-05-08T14:08:52Z</time>
      </trkpt>
      <trkpt lat="48.69236" lon="2.03057">
        <ele>139.047852</ele>
        <time>2014-05-08T14:09:17Z</time>
      </trkpt>
      <trkpt lat="48.69242" lon="2.03063">
        <ele>142.412476</ele>
        <time>2014-05-08T14:09:33Z</time>
      </trkpt>
      <trkpt lat="48.69249" lon="2.03066">
        <ele>144.815796</ele>
        <time>2014-05-08T14:09:56Z</time>
      </trkpt>
      <trkpt lat="48.69267" lon="2.03044">
        <ele>145.7771</ele>
        <time>2014-05-08T14:10:19Z</time>
      </trkpt>
      <trkpt lat="48.69277" lon="2.03037">
        <ele>143.373657</ele>
        <time>2014-05-08T14:10:35Z</time>
      </trkpt>
      <trkpt lat="48.69291" lon="2.03036">
        <ele>141.45105</ele>
        <time>2014-05-08T14:10:53Z</time>
      </trkpt>
      <trkpt lat="48.69305" lon="2.03043">
        <ele>135.683105</ele>
        <time>2014-05-08T14:11:04Z</time>
      </trkpt>
      <trkpt lat="48.69318" lon="2.03053">
        <ele>128.954102</ele>
        <time>2014-05-08T14:11:22Z</time>
      </trkpt>
      <trkpt lat="48.69328" lon="2.0306">
        <ele>124.147339</ele>
        <time>2014-05-08T14:11:41Z</time>
      </trkpt>
      <trkpt lat="48.69334" lon="2.03064">
        <ele>123.186157</ele>
        <time>2014-05-08T14:12:00Z</time>
      </trkpt>
      <trkpt lat="48.69339" lon="2.03069">
        <ele>123.186157</ele>
        <time>2014-05-08T14:12:23Z</time>
      </trkpt>
      <trkpt lat="48.6936" lon="2.03074">
        <ele>123.666748</ele>
        <time>2014-05-08T14:12:42Z</time>
      </trkpt>
      <trkpt lat="48.69369" lon="2.0308">
        <ele>124.147339</ele>
        <time>2014-05-08T14:13:00Z</time>
      </trkpt>
      <trkpt lat="48.69379" lon="2.03083">
        <ele>125.589355</ele>
        <time>2014-05-08T14:13:18Z</time>
      </trkpt>
      <trkpt lat="48.6939" lon="2.03079">
        <ele>126.550659</ele>
        <time>2014-05-08T14:13:36Z</time>
      </trkpt>
      <trkpt lat="48.69397" lon="2.03071">
        <ele>128.473389</ele>
        <time>2014-05-08T14:13:58Z</time>
      </trkpt>
      <trkpt lat="48.69405" lon="2.03072">
        <ele>127.511963</ele>
        <time>2014-05-08T14:14:15Z</time>
      </trkpt>
      <trkpt lat="48.6941" lon="2.03083">
        <ele>126.550659</ele>
        <time>2014-05-08T14:14:42Z</time>
      </trkpt>
      <trkpt lat="48.69418" lon="2.03085">
        <ele>125.108765</ele>
        <time>2014-05-08T14:15:01Z</time>
      </trkpt>
      <trkpt lat="48.69424" lon="2.03069">
        <ele>124.147339</ele>
        <time>2014-05-08T14:15:18Z</time>
      </trkpt>
      <trkpt lat="48.69416" lon="2.03053">
        <ele>122.705444</ele>
        <time>2014-05-08T14:15:38Z</time>
      </trkpt>
      <trkpt lat="48.69408" lon="2.03041">
        <ele>124.147339</ele>
        <time>2014-05-08T14:15:57Z</time>
      </trkpt>
      <trkpt lat="48.69399" lon="2.03034">
        <ele>125.108765</ele>
        <time>2014-05-08T14:16:28Z</time>
      </trkpt>
      <trkpt lat="48.69392" lon="2.03034">
        <ele>125.589355</ele>
        <time>2014-05-08T14:16:50Z</time>
      </trkpt>
      <trkpt lat="48.69389" lon="2.03036">
        <ele>126.069946</ele>
        <time>2014-05-08T14:17:48Z</time>
      </trkpt>
      <trkpt lat="48.69398" lon="2.03023">
        <ele>126.550659</ele>
        <time>2014-05-08T14:18:06Z</time>
      </trkpt>
      <trkpt lat="48.69401" lon="2.03018">
        <ele>130.876709</ele>
        <time>2014-05-08T14:21:15Z</time>
      </trkpt>
      <trkpt lat="48.69406" lon="2.03018">
        <ele>130.395996</ele>
        <time>2014-05-08T14:21:39Z</time>
      </trkpt>
      <trkpt lat="48.69404" lon="2.03017">
        <ele>130.876709</ele>
        <time>2014-05-08T14:22:30Z</time>
      </trkpt>
      <trkpt lat="48.69403" lon="2.03014">
        <ele>130.395996</ele>
        <time>2014-05-08T14:23:36Z</time>
      </trkpt>
      <trkpt lat="48.69402" lon="2.03">
        <ele>130.395996</ele>
        <time>2014-05-08T14:23:52Z</time>
      </trkpt>
      <trkpt lat="48.69407" lon="2.02981">
        <ele>130.395996</ele>
        <time>2014-05-08T14:24:17Z</time>
      </trkpt>
      <trkpt lat="48.69418" lon="2.02967">
        <ele>128.473389</ele>
        <time>2014-05-08T14:24:35Z</time>
      </trkpt>
      <trkpt lat="48.69427" lon="2.02959">
        <ele>125.108765</ele>
        <time>2014-05-08T14:24:52Z</time>
      </trkpt>
      <trkpt lat="48.69444" lon="2.02943">
        <ele>122.705444</ele>
        <time>2014-05-08T14:25:10Z</time>
      </trkpt>
      <trkpt lat="48.69453" lon="2.0293">
        <ele>117.418213</ele>
        <time>2014-05-08T14:25:30Z</time>
      </trkpt>
      <trkpt lat="48.69465" lon="2.02908">
        <ele>114.53418</ele>
        <time>2014-05-08T14:25:54Z</time>
      </trkpt>
      <trkpt lat="48.69477" lon="2.02902">
        <ele>109.727661</ele>
        <time>2014-05-08T14:26:15Z</time>
      </trkpt>
      <trkpt lat="48.69491" lon="2.02895">
        <ele>107.805054</ele>
        <time>2014-05-08T14:26:32Z</time>
      </trkpt>
      <trkpt lat="48.6951" lon="2.02884">
        <ele>104.44043</ele>
        <time>2014-05-08T14:26:47Z</time>
      </trkpt>
      <trkpt lat="48.69517" lon="2.02881">
        <ele>102.998291</ele>
        <time>2014-05-08T14:27:11Z</time>
      </trkpt>
      <trkpt lat="48.69536" lon="2.02856">
        <ele>100.595093</ele>
        <time>2014-05-08T14:28:02Z</time>
      </trkpt>
      <trkpt lat="48.69556" lon="2.02834">
        <ele>98.191895</ele>
        <time>2014-05-08T14:28:24Z</time>
      </trkpt>
      <trkpt lat="48.69567" lon="2.02828">
        <ele>94.346558</ele>
        <time>2014-05-08T14:28:28Z</time>
      </trkpt>
      <trkpt lat="48.6957" lon="2.02826">
        <ele>92.904541</ele>
        <time>2014-05-08T14:28:33Z</time>
      </trkpt>
      <trkpt lat="48.69584" lon="2.0282">
        <ele>88.578735</ele>
        <time>2014-05-08T14:28:47Z</time>
      </trkpt>
      <trkpt lat="48.69588" lon="2.02824">
        <ele>88.098022</ele>
        <time>2014-05-08T14:28:51Z</time>
      </trkpt>
      <trkpt lat="48.69593" lon="2.02845">
        <ele>84.252686</ele>
        <time>2014-05-08T14:29:06Z</time>
      </trkpt>
      <trkpt lat="48.69602" lon="2.02865">
        <ele>82.330078</ele>
        <time>2014-05-08T14:29:20Z</time>
      </trkpt>
      <trkpt lat="48.69614" lon="2.02884">
        <ele>79.926636</ele>
        <time>2014-05-08T14:29:36Z</time>
      </trkpt>
      <trkpt lat="48.69617" lon="2.02889">
        <ele>79.446045</ele>
        <time>2014-05-08T14:29:40Z</time>
      </trkpt>
      <trkpt lat="48.69619" lon="2.02894">
        <ele>79.446045</ele>
        <time>2014-05-08T14:29:44Z</time>
      </trkpt>
      <trkpt lat="48.69623" lon="2.02902">
        <ele>79.926636</ele>
        <time>2014-05-08T14:29:50Z</time>
      </trkpt>
      <trkpt lat="48.6963" lon="2.02917">
        <ele>79.926636</ele>
        <time>2014-05-08T14:29:59Z</time>
      </trkpt>
      <trkpt lat="48.69636" lon="2.02929">
        <ele>80.888184</ele>
        <time>2014-05-08T14:30:08Z</time>
      </trkpt>
      <trkpt lat="48.69648" lon="2.02947">
        <ele>80.888184</ele>
        <time>2014-05-08T14:30:21Z</time>
      </trkpt>
      <trkpt lat="48.69653" lon="2.02972">
        <ele>81.849365</ele>
        <time>2014-05-08T14:30:35Z</time>
      </trkpt>
      <trkpt lat="48.69665" lon="2.02988">
        <ele>82.810791</ele>
        <time>2014-05-08T14:30:51Z</time>
      </trkpt>
      <trkpt lat="48.69675" lon="2.03017">
        <ele>83.771973</ele>
        <time>2014-05-08T14:31:07Z</time>
      </trkpt>
      <trkpt lat="48.69681" lon="2.03028">
        <ele>83.291382</ele>
        <time>2014-05-08T14:31:14Z</time>
      </trkpt>
      <trkpt lat="48.69692" lon="2.03048">
        <ele>84.733398</ele>
        <time>2014-05-08T14:31:27Z</time>
      </trkpt>
      <trkpt lat="48.69709" lon="2.03067">
        <ele>85.213989</ele>
        <time>2014-05-08T14:31:47Z</time>
      </trkpt>
      <trkpt lat="48.69722" lon="2.03095">
        <ele>83.291382</ele>
        <time>2014-05-08T14:32:09Z</time>
      </trkpt>
      <trkpt lat="48.6973" lon="2.03103">
        <ele>82.330078</ele>
        <time>2014-05-08T14:32:16Z</time>
      </trkpt>
      <trkpt lat="48.69739" lon="2.03114">
        <ele>83.291382</ele>
        <time>2014-05-08T14:32:29Z</time>
      </trkpt>
      <trkpt lat="48.6974" lon="2.03126">
        <ele>82.810791</ele>
        <time>2014-05-08T14:32:39Z</time>
      </trkpt>
      <trkpt lat="48.69753" lon="2.0314">
        <ele>81.368774</ele>
        <time>2014-05-08T14:32:50Z</time>
      </trkpt>
      <trkpt lat="48.69765" lon="2.03148">
        <ele>81.368774</ele>
        <time>2014-05-08T14:33:02Z</time>
      </trkpt>
      <trkpt lat="48.69778" lon="2.03161">
        <ele>82.330078</ele>
        <time>2014-05-08T14:33:14Z</time>
      </trkpt>
      <trkpt lat="48.69786" lon="2.03186">
        <ele>88.098022</ele>
        <time>2014-05-08T14:33:33Z</time>
      </trkpt>
      <trkpt lat="48.69775" lon="2.03193">
        <ele>90.981934</ele>
        <time>2014-05-08T14:33:49Z</time>
      </trkpt>
      <trkpt lat="48.69751" lon="2.03192">
        <ele>94.827148</ele>
        <time>2014-05-08T14:34:11Z</time>
      </trkpt>
      <trkpt lat="48.69727" lon="2.03194">
        <ele>98.191895</ele>
        <time>2014-05-08T14:34:32Z</time>
      </trkpt>
      <trkpt lat="48.69708" lon="2.03191">
        <ele>102.037109</ele>
        <time>2014-05-08T14:34:45Z</time>
      </trkpt>
      <trkpt lat="48.69683" lon="2.03185">
        <ele>104.921021</ele>
        <time>2014-05-08T14:35:12Z</time>
      </trkpt>
      <trkpt lat="48.69668" lon="2.0321">
        <ele>107.805054</ele>
        <time>2014-05-08T14:35:38Z</time>
      </trkpt>
      <trkpt lat="48.69666" lon="2.03218">
        <ele>109.727661</ele>
        <time>2014-05-08T14:36:04Z</time>
      </trkpt>
      <trkpt lat="48.69661" lon="2.03242">
        <ele>110.688843</ele>
        <time>2014-05-08T14:36:25Z</time>
      </trkpt>
      <trkpt lat="48.69659" lon="2.03268">
        <ele>115.495605</ele>
        <time>2014-05-08T14:36:49Z</time>
      </trkpt>
      <trkpt lat="48.6967" lon="2.03277">
        <ele>119.821411</ele>
        <time>2014-05-08T14:37:04Z</time>
      </trkpt>
      <trkpt lat="48.69676" lon="2.03285">
        <ele>122.705444</ele>
        <time>2014-05-08T14:37:19Z</time>
      </trkpt>
      <trkpt lat="48.69675" lon="2.03319">
        <ele>124.628052</ele>
        <time>2014-05-08T14:37:50Z</time>
      </trkpt>
      <trkpt lat="48.69673" lon="2.03338">
        <ele>126.069946</ele>
        <time>2014-05-08T14:38:15Z</time>
      </trkpt>
      <trkpt lat="48.69667" lon="2.03357">
        <ele>126.069946</ele>
        <time>2014-05-08T14:38:32Z</time>
      </trkpt>
      <trkpt lat="48.69667" lon="2.03375">
        <ele>127.511963</ele>
        <time>2014-05-08T14:38:51Z</time>
      </trkpt>
      <trkpt lat="48.69668" lon="2.03383">
        <ele>126.550659</ele>
        <time>2014-05-08T14:39:00Z</time>
      </trkpt>
      <trkpt lat="48.69668" lon="2.03413">
        <ele>126.550659</ele>
        <time>2014-05-08T14:39:22Z</time>
      </trkpt>
      <trkpt lat="48.69665" lon="2.03433">
        <ele>129.915283</ele>
        <time>2014-05-08T14:39:42Z</time>
      </trkpt>
      <trkpt lat="48.69668" lon="2.03452">
        <ele>132.318604</ele>
        <time>2014-05-08T14:39:58Z</time>
      </trkpt>
      <trkpt lat="48.69668" lon="2.03477">
        <ele>135.202515</ele>
        <time>2014-05-08T14:40:13Z</time>
      </trkpt>
      <trkpt lat="48.69658" lon="2.035">
        <ele>138.567261</ele>
        <time>2014-05-08T14:40:33Z</time>
      </trkpt>
      <trkpt lat="48.69655" lon="2.03527">
        <ele>141.931763</ele>
        <time>2014-05-08T14:40:54Z</time>
      </trkpt>
      <trkpt lat="48.69661" lon="2.03548">
        <ele>146.738403</ele>
        <time>2014-05-08T14:41:15Z</time>
      </trkpt>
      <trkpt lat="48.69666" lon="2.03548">
        <ele>149.622314</ele>
        <time>2014-05-08T14:41:44Z</time>
      </trkpt>
      <trkpt lat="48.69662" lon="2.03554">
        <ele>151.064209</ele>
        <time>2014-05-08T14:42:20Z</time>
      </trkpt>
      <trkpt lat="48.69656" lon="2.03551">
        <ele>152.506348</ele>
        <time>2014-05-08T14:43:36Z</time>
      </trkpt>
      <trkpt lat="48.69667" lon="2.03551">
        <ele>152.025757</ele>
        <time>2014-05-08T14:44:00Z</time>
      </trkpt>
      <trkpt lat="48.69684" lon="2.03552">
        <ele>152.986938</ele>
        <time>2014-05-08T14:44:19Z</time>
      </trkpt>
      <trkpt lat="48.69697" lon="2.03545">
        <ele>155.390259</ele>
        <time>2014-05-08T14:44:40Z</time>
      </trkpt>
      <trkpt lat="48.69692" lon="2.03527">
        <ele>155.870972</ele>
        <time>2014-05-08T14:45:14Z</time>
      </trkpt>
      <trkpt lat="48.69699" lon="2.03519">
        <ele>155.390259</ele>
        <time>2014-05-08T14:45:35Z</time>
      </trkpt>
      <trkpt lat="48.69696" lon="2.03524">
        <ele>158.27417</ele>
        <time>2014-05-08T14:46:51Z</time>
      </trkpt>
      <trkpt lat="48.6971" lon="2.03526">
        <ele>156.351562</ele>
        <time>2014-05-08T14:47:05Z</time>
      </trkpt>
      <trkpt lat="48.69714" lon="2.03539">
        <ele>156.832153</ele>
        <time>2014-05-08T14:47:55Z</time>
      </trkpt>
      <trkpt lat="48.69712" lon="2.0354">
        <ele>153.467651</ele>
        <time>2014-05-08T14:48:31Z</time>
      </trkpt>
      <trkpt lat="48.69717" lon="2.0354">
        <ele>153.948364</ele>
        <time>2014-05-08T14:48:59Z</time>
      </trkpt>
      <trkpt lat="48.6971" lon="2.03536">
        <ele>156.351562</ele>
        <time>2014-05-08T14:49:34Z</time>
      </trkpt>
      <trkpt lat="48.69704" lon="2.03535">
        <ele>156.351562</ele>
        <time>2014-05-08T14:50:02Z</time>
      </trkpt>
      <trkpt lat="48.69701" lon="2.03539">
        <ele>157.793579</ele>
        <time>2014-05-08T14:51:39Z</time>
      </trkpt>
      <trkpt lat="48.69695" lon="2.0355">
        <ele>158.754761</ele>
        <time>2014-05-08T14:51:58Z</time>
      </trkpt>
      <trkpt lat="48.69678" lon="2.0356">
        <ele>159.235474</ele>
        <time>2014-05-08T14:52:17Z</time>
      </trkpt>
      <trkpt lat="48.69665" lon="2.03574">
        <ele>159.235474</ele>
        <time>2014-05-08T14:52:36Z</time>
      </trkpt>
      <trkpt lat="48.69666" lon="2.03606">
        <ele>159.235474</ele>
        <time>2014-05-08T14:53:06Z</time>
      </trkpt>
      <trkpt lat="48.69661" lon="2.0363">
        <ele>159.716187</ele>
        <time>2014-05-08T14:53:24Z</time>
      </trkpt>
      <trkpt lat="48.69658" lon="2.03655">
        <ele>160.196899</ele>
        <time>2014-05-08T14:53:49Z</time>
      </trkpt>
      <trkpt lat="48.69654" lon="2.03699">
        <ele>160.67749</ele>
        <time>2014-05-08T14:54:15Z</time>
      </trkpt>
      <trkpt lat="48.69657" lon="2.03735">
        <ele>160.196899</ele>
        <time>2014-05-08T14:54:35Z</time>
      </trkpt>
      <trkpt lat="48.69656" lon="2.03774">
        <ele>161.158203</ele>
        <time>2014-05-08T14:54:59Z</time>
      </trkpt>
      <trkpt lat="48.69651" lon="2.03803">
        <ele>161.638916</ele>
        <time>2014-05-08T14:55:26Z</time>
      </trkpt>
      <trkpt lat="48.6964" lon="2.03842">
        <ele>161.638916</ele>
        <time>2014-05-08T14:55:55Z</time>
      </trkpt>
      <trkpt lat="48.69645" lon="2.03901">
        <ele>161.158203</ele>
        <time>2014-05-08T14:56:23Z</time>
      </trkpt>
      <trkpt lat="48.69643" lon="2.03941">
        <ele>160.67749</ele>
        <time>2014-05-08T14:56:49Z</time>
      </trkpt>
      <trkpt lat="48.69646" lon="2.03976">
        <ele>162.600098</ele>
        <time>2014-05-08T14:57:13Z</time>
      </trkpt>
      <trkpt lat="48.69655" lon="2.04015">
        <ele>164.042114</ele>
        <time>2014-05-08T14:57:36Z</time>
      </trkpt>
      <trkpt lat="48.69659" lon="2.04059">
        <ele>165.484131</ele>
        <time>2014-05-08T14:57:59Z</time>
      </trkpt>
      <trkpt lat="48.69661" lon="2.04085">
        <ele>166.926025</ele>
        <time>2014-05-08T14:58:11Z</time>
      </trkpt>
      <trkpt lat="48.69658" lon="2.04101">
        <ele>167.887329</ele>
        <time>2014-05-08T14:58:22Z</time>
      </trkpt>
      <trkpt lat="48.69659" lon="2.04128">
        <ele>178.461914</ele>
        <time>2014-05-08T14:58:34Z</time>
      </trkpt>
      <trkpt lat="48.6966" lon="2.04139">
        <ele>182.307129</ele>
        <time>2014-05-08T14:58:40Z</time>
      </trkpt>
      <trkpt lat="48.69659" lon="2.04165">
        <ele>190.958984</ele>
        <time>2014-05-08T14:58:56Z</time>
      </trkpt>
      <trkpt lat="48.69651" lon="2.04185">
        <ele>194.32373</ele>
        <time>2014-05-08T14:59:06Z</time>
      </trkpt>
      <trkpt lat="48.69651" lon="2.04186">
        <ele>194.32373</ele>
        <time>2014-05-08T14:59:07Z</time>
      </trkpt>
      <trkpt lat="48.69647" lon="2.04196">
        <ele>195.765625</ele>
        <time>2014-05-08T14:59:12Z</time>
      </trkpt>
      <trkpt lat="48.69652" lon="2.04213">
        <ele>199.130127</ele>
        <time>2014-05-08T14:59:25Z</time>
      </trkpt>
      <trkpt lat="48.69653" lon="2.04235">
        <ele>202.494873</ele>
        <time>2014-05-08T14:59:37Z</time>
      </trkpt>
      <trkpt lat="48.69656" lon="2.04252">
        <ele>205.378784</ele>
        <time>2014-05-08T14:59:50Z</time>
      </trkpt>
      <trkpt lat="48.69661" lon="2.04278">
        <ele>205.378784</ele>
        <time>2014-05-08T15:00:02Z</time>
      </trkpt>
      <trkpt lat="48.69674" lon="2.043">
        <ele>205.378784</ele>
        <time>2014-05-08T15:00:18Z</time>
      </trkpt>
      <trkpt lat="48.6967" lon="2.04348">
        <ele>198.168945</ele>
        <time>2014-05-08T15:00:36Z</time>
      </trkpt>
      <trkpt lat="48.69664" lon="2.04376">
        <ele>193.362305</ele>
        <time>2014-05-08T15:00:58Z</time>
      </trkpt>
      <trkpt lat="48.6966" lon="2.04394">
        <ele>188.555786</ele>
        <time>2014-05-08T15:01:11Z</time>
      </trkpt>
      <trkpt lat="48.6966" lon="2.04426">
        <ele>179.423218</ele>
        <time>2014-05-08T15:01:29Z</time>
      </trkpt>
      <trkpt lat="48.69673" lon="2.04443">
        <ele>177.02002</ele>
        <time>2014-05-08T15:01:40Z</time>
      </trkpt>
      <trkpt lat="48.69679" lon="2.04459">
        <ele>175.09729</ele>
        <time>2014-05-08T15:02:00Z</time>
      </trkpt>
      <trkpt lat="48.69689" lon="2.04466">
        <ele>174.616577</ele>
        <time>2014-05-08T15:02:54Z</time>
      </trkpt>
      <trkpt lat="48.69677" lon="2.04461">
        <ele>174.616577</ele>
        <time>2014-05-08T15:03:16Z</time>
      </trkpt>
      <trkpt lat="48.69673" lon="2.04465">
        <ele>174.616577</ele>
        <time>2014-05-08T15:03:45Z</time>
      </trkpt>
      <trkpt lat="48.69685" lon="2.04471">
        <ele>173.655273</ele>
        <time>2014-05-08T15:05:22Z</time>
      </trkpt>
      <trkpt lat="48.69684" lon="2.04471">
        <ele>173.655273</ele>
        <time>2014-05-08T15:06:02Z</time>
      </trkpt>
      <trkpt lat="48.69681" lon="2.04476">
        <ele>173.174683</ele>
        <time>2014-05-08T15:06:19Z</time>
      </trkpt>
      <trkpt lat="48.69694" lon="2.04467">
        <ele>168.848755</ele>
        <time>2014-05-08T15:08:18Z</time>
      </trkpt>
      <trkpt lat="48.69694" lon="2.04462">
        <ele>165.964722</ele>
        <time>2014-05-08T15:08:45Z</time>
      </trkpt>
      <trkpt lat="48.69686" lon="2.04462">
        <ele>165.003418</ele>
        <time>2014-05-08T15:09:02Z</time>
      </trkpt>
      <trkpt lat="48.6968" lon="2.04454">
        <ele>162.119507</ele>
        <time>2014-05-08T15:09:20Z</time>
      </trkpt>
      <trkpt lat="48.69675" lon="2.04445">
        <ele>160.196899</ele>
        <time>2014-05-08T15:09:39Z</time>
      </trkpt>
      <trkpt lat="48.69679" lon="2.04484">
        <ele>159.235474</ele>
        <time>2014-05-08T15:10:16Z</time>
      </trkpt>
      <trkpt lat="48.69674" lon="2.04529">
        <ele>158.27417</ele>
        <time>2014-05-08T15:10:46Z</time>
      </trkpt>
      <trkpt lat="48.69661" lon="2.04574">
        <ele>156.351562</ele>
        <time>2014-05-08T15:11:16Z</time>
      </trkpt>
      <trkpt lat="48.69657" lon="2.04615">
        <ele>155.390259</ele>
        <time>2014-05-08T15:11:42Z</time>
      </trkpt>
      <trkpt lat="48.69661" lon="2.04676">
        <ele>153.948364</ele>
        <time>2014-05-08T15:12:07Z</time>
      </trkpt>
      <trkpt lat="48.69673" lon="2.04718">
        <ele>152.986938</ele>
        <time>2014-05-08T15:12:34Z</time>
      </trkpt>
      <trkpt lat="48.69675" lon="2.04757">
        <ele>152.506348</ele>
        <time>2014-05-08T15:12:58Z</time>
      </trkpt>
      <trkpt lat="48.6966" lon="2.04796">
        <ele>151.544922</ele>
        <time>2014-05-08T15:13:22Z</time>
      </trkpt>
      <trkpt lat="48.6966" lon="2.04838">
        <ele>151.064209</ele>
        <time>2014-05-08T15:13:47Z</time>
      </trkpt>
      <trkpt lat="48.69657" lon="2.04874">
        <ele>151.064209</ele>
        <time>2014-05-08T15:14:01Z</time>
      </trkpt>
      <trkpt lat="48.69668" lon="2.04904">
        <ele>150.583618</ele>
        <time>2014-05-08T15:14:21Z</time>
      </trkpt>
      <trkpt lat="48.6966" lon="2.04929">
        <ele>148.18042</ele>
        <time>2014-05-08T15:14:40Z</time>
      </trkpt>
      <trkpt lat="48.69663" lon="2.04959">
        <ele>146.738403</ele>
        <time>2014-05-08T15:15:03Z</time>
      </trkpt>
      <trkpt lat="48.69659" lon="2.04996">
        <ele>144.815796</ele>
        <time>2014-05-08T15:15:27Z</time>
      </trkpt>
      <trkpt lat="48.69661" lon="2.05035">
        <ele>142.412476</ele>
        <time>2014-05-08T15:15:52Z</time>
      </trkpt>
      <trkpt lat="48.69657" lon="2.05075">
        <ele>139.047852</ele>
        <time>2014-05-08T15:16:13Z</time>
      </trkpt>
      <trkpt lat="48.69678" lon="2.05127">
        <ele>135.683105</ele>
        <time>2014-05-08T15:16:32Z</time>
      </trkpt>
      <trkpt lat="48.69677" lon="2.05148">
        <ele>132.799316</ele>
        <time>2014-05-08T15:16:49Z</time>
      </trkpt>
      <trkpt lat="48.69675" lon="2.0518">
        <ele>128.954102</ele>
        <time>2014-05-08T15:17:11Z</time>
      </trkpt>
      <trkpt lat="48.69668" lon="2.0522">
        <ele>124.147339</ele>
        <time>2014-05-08T15:17:38Z</time>
      </trkpt>
      <trkpt lat="48.6967" lon="2.05262">
        <ele>121.26355</ele>
        <time>2014-05-08T15:18:01Z</time>
      </trkpt>
      <trkpt lat="48.6967" lon="2.05276">
        <ele>119.821411</ele>
        <time>2014-05-08T15:18:08Z</time>
      </trkpt>
      <trkpt lat="48.69672" lon="2.05315">
        <ele>121.26355</ele>
        <time>2014-05-08T15:18:34Z</time>
      </trkpt>
      <trkpt lat="48.69667" lon="2.05357">
        <ele>121.26355</ele>
        <time>2014-05-08T15:19:05Z</time>
      </trkpt>
      <trkpt lat="48.69664" lon="2.05391">
        <ele>121.744141</ele>
        <time>2014-05-08T15:19:33Z</time>
      </trkpt>
      <trkpt lat="48.69669" lon="2.05436">
        <ele>121.744141</ele>
        <time>2014-05-08T15:19:54Z</time>
      </trkpt>
      <trkpt lat="48.69672" lon="2.0548">
        <ele>123.186157</ele>
        <time>2014-05-08T15:20:18Z</time>
      </trkpt>
      <trkpt lat="48.69667" lon="2.05505">
        <ele>123.666748</ele>
        <time>2014-05-08T15:20:36Z</time>
      </trkpt>
      <trkpt lat="48.69666" lon="2.05538">
        <ele>123.666748</ele>
        <time>2014-05-08T15:20:52Z</time>
      </trkpt>
      <trkpt lat="48.69665" lon="2.05545">
        <ele>124.628052</ele>
        <time>2014-05-08T15:20:57Z</time>
      </trkpt>
      <trkpt lat="48.69656" lon="2.05577">
        <ele>131.837891</ele>
        <time>2014-05-08T15:21:23Z</time>
      </trkpt>
      <trkpt lat="48.69617" lon="2.05607">
        <ele>139.047852</ele>
        <time>2014-05-08T15:22:49Z</time>
      </trkpt>
      <trkpt lat="48.69597" lon="2.05599">
        <ele>140.489868</ele>
        <time>2014-05-08T15:23:11Z</time>
      </trkpt>
      <trkpt lat="48.69574" lon="2.05587">
        <ele>140.489868</ele>
        <time>2014-05-08T15:23:31Z</time>
      </trkpt>
      <trkpt lat="48.69564" lon="2.05589">
        <ele>140.970459</ele>
        <time>2014-05-08T15:23:50Z</time>
      </trkpt>
      <trkpt lat="48.69547" lon="2.05599">
        <ele>141.45105</ele>
        <time>2014-05-08T15:24:15Z</time>
      </trkpt>
      <trkpt lat="48.69539" lon="2.05614">
        <ele>142.412476</ele>
        <time>2014-05-08T15:24:32Z</time>
      </trkpt>
      <trkpt lat="48.69528" lon="2.05627">
        <ele>142.893066</ele>
        <time>2014-05-08T15:24:48Z</time>
      </trkpt>
      <trkpt lat="48.69529" lon="2.05659">
        <ele>140.970459</ele>
        <time>2014-05-08T15:25:11Z</time>
      </trkpt>
      <trkpt lat="48.69522" lon="2.05678">
        <ele>141.45105</ele>
        <time>2014-05-08T15:25:53Z</time>
      </trkpt>
      <trkpt lat="48.69523" lon="2.057">
        <ele>142.893066</ele>
        <time>2014-05-08T15:26:32Z</time>
      </trkpt>
      <trkpt lat="48.69517" lon="2.05728">
        <ele>141.45105</ele>
        <time>2014-05-08T15:27:14Z</time>
      </trkpt>
      <trkpt lat="48.69514" lon="2.05729">
        <ele>142.893066</ele>
        <time>2014-05-08T15:27:32Z</time>
      </trkpt>
      <trkpt lat="48.69519" lon="2.05735">
        <ele>143.85437</ele>
        <time>2014-05-08T15:28:05Z</time>
      </trkpt>
      <trkpt lat="48.69518" lon="2.05741">
        <ele>144.815796</ele>
        <time>2014-05-08T15:28:46Z</time>
      </trkpt>
      <trkpt lat="48.69511" lon="2.05744">
        <ele>143.85437</ele>
        <time>2014-05-08T15:29:18Z</time>
      </trkpt>
      <trkpt lat="48.69518" lon="2.05737">
        <ele>142.412476</ele>
        <time>2014-05-08T15:29:36Z</time>
      </trkpt>
      <trkpt lat="48.69533" lon="2.05732">
        <ele>140.489868</ele>
        <time>2014-05-08T15:30:01Z</time>
      </trkpt>
      <trkpt lat="48.69545" lon="2.05727">
        <ele>138.567261</ele>
        <time>2014-05-08T15:30:24Z</time>
      </trkpt>
      <trkpt lat="48.69547" lon="2.05728">
        <ele>136.644653</ele>
        <time>2014-05-08T15:30:43Z</time>
      </trkpt>
      <trkpt lat="48.69559" lon="2.05725">
        <ele>133.279907</ele>
        <time>2014-05-08T15:31:06Z</time>
      </trkpt>
      <trkpt lat="48.69555" lon="2.05712">
        <ele>132.318604</ele>
        <time>2014-05-08T15:31:23Z</time>
      </trkpt>
      <trkpt lat="48.69552" lon="2.05701">
        <ele>128.954102</ele>
        <time>2014-05-08T15:32:49Z</time>
      </trkpt>
      <trkpt lat="48.69531" lon="2.05687">
        <ele>128.954102</ele>
        <time>2014-05-08T15:33:58Z</time>
      </trkpt>
      <trkpt lat="48.69534" lon="2.05693">
        <ele>128.954102</ele>
        <time>2014-05-08T15:34:58Z</time>
      </trkpt>
      <trkpt lat="48.69533" lon="2.05667">
        <ele>126.550659</ele>
        <time>2014-05-08T15:35:42Z</time>
      </trkpt>
      <trkpt lat="48.69527" lon="2.05648">
        <ele>127.031372</ele>
        <time>2014-05-08T15:36:00Z</time>
      </trkpt>
      <trkpt lat="48.69534" lon="2.05658">
        <ele>128.954102</ele>
        <time>2014-05-08T15:36:26Z</time>
      </trkpt>
      <trkpt lat="48.69531" lon="2.05659">
        <ele>131.3573</ele>
        <time>2014-05-08T15:36:56Z</time>
      </trkpt>
      <trkpt lat="48.69508" lon="2.05643">
        <ele>131.837891</ele>
        <time>2014-05-08T15:37:14Z</time>
      </trkpt>
      <trkpt lat="48.69506" lon="2.05654">
        <ele>130.395996</ele>
        <time>2014-05-08T15:37:52Z</time>
      </trkpt>
      <trkpt lat="48.69502" lon="2.05659">
        <ele>135.683105</ele>
        <time>2014-05-08T15:40:14Z</time>
      </trkpt>
      <trkpt lat="48.69504" lon="2.05644">
        <ele>141.45105</ele>
        <time>2014-05-08T15:40:42Z</time>
      </trkpt>
      <trkpt lat="48.69503" lon="2.05678">
        <ele>149.141602</ele>
        <time>2014-05-08T15:41:46Z</time>
      </trkpt>
      <trkpt lat="48.69509" lon="2.05682">
        <ele>151.064209</ele>
        <time>2014-05-08T15:42:32Z</time>
      </trkpt>
      <trkpt lat="48.69518" lon="2.05662">
        <ele>149.141602</ele>
        <time>2014-05-08T15:43:01Z</time>
      </trkpt>
      <trkpt lat="48.6952" lon="2.05674">
        <ele>146.257812</ele>
        <time>2014-05-08T15:43:29Z</time>
      </trkpt>
      <trkpt lat="48.69518" lon="2.057">
        <ele>144.335205</ele>
        <time>2014-05-08T15:43:55Z</time>
      </trkpt>
      <trkpt lat="48.69508" lon="2.05699">
        <ele>144.335205</ele>
        <time>2014-05-08T15:44:23Z</time>
      </trkpt>
      <trkpt lat="48.69505" lon="2.05703">
        <ele>139.528442</ele>
        <time>2014-05-08T15:45:04Z</time>
      </trkpt>
      <trkpt lat="48.69485" lon="2.05687">
        <ele>140.009155</ele>
        <time>2014-05-08T15:45:40Z</time>
      </trkpt>
      <trkpt lat="48.69494" lon="2.05698">
        <ele>140.970459</ele>
        <time>2014-05-08T15:46:17Z</time>
      </trkpt>
      <trkpt lat="48.69502" lon="2.05693">
        <ele>143.373657</ele>
        <time>2014-05-08T15:46:44Z</time>
      </trkpt>
      <trkpt lat="48.69496" lon="2.05676">
        <ele>137.125244</ele>
        <time>2014-05-08T15:47:20Z</time>
      </trkpt>
      <trkpt lat="48.69501" lon="2.05677">
        <ele>137.125244</ele>
        <time>2014-05-08T15:47:48Z</time>
      </trkpt>
      <trkpt lat="48.69503" lon="2.0566">
        <ele>139.047852</ele>
        <time>2014-05-08T15:48:11Z</time>
      </trkpt>
      <trkpt lat="48.69505" lon="2.0566">
        <ele>139.047852</ele>
        <time>2014-05-08T15:48:40Z</time>
      </trkpt>
      <trkpt lat="48.69508" lon="2.05664">
        <ele>138.086548</ele>
        <time>2014-05-08T15:49:22Z</time>
      </trkpt>
      <trkpt lat="48.69517" lon="2.05667">
        <ele>137.605835</ele>
        <time>2014-05-08T15:49:46Z</time>
      </trkpt>
      <trkpt lat="48.69534" lon="2.0568">
        <ele>140.489868</ele>
        <time>2014-05-08T15:50:29Z</time>
      </trkpt>
      <trkpt lat="48.69531" lon="2.05684">
        <ele>140.489868</ele>
        <time>2014-05-08T15:51:16Z</time>
      </trkpt>
      <trkpt lat="48.69534" lon="2.05667">
        <ele>138.086548</ele>
        <time>2014-05-08T15:51:56Z</time>
      </trkpt>
      <trkpt lat="48.69523" lon="2.05694">
        <ele>140.970459</ele>
        <time>2014-05-08T15:52:59Z</time>
      </trkpt>
      <trkpt lat="48.69526" lon="2.05694">
        <ele>141.931763</ele>
        <time>2014-05-08T15:53:28Z</time>
      </trkpt>
      <trkpt lat="48.69537" lon="2.05703">
        <ele>142.893066</ele>
        <time>2014-05-08T15:53:52Z</time>
      </trkpt>
      <trkpt lat="48.6955" lon="2.05709">
        <ele>144.815796</ele>
        <time>2014-05-08T15:54:13Z</time>
      </trkpt>
      <trkpt lat="48.69546" lon="2.05717">
        <ele>141.45105</ele>
        <time>2014-05-08T15:54:49Z</time>
      </trkpt>
      <trkpt lat="48.69536" lon="2.05717">
        <ele>138.086548</ele>
        <time>2014-05-08T15:55:21Z</time>
      </trkpt>
      <trkpt lat="48.6954" lon="2.05718">
        <ele>139.047852</ele>
        <time>2014-05-08T15:55:50Z</time>
      </trkpt>
      <trkpt lat="48.69549" lon="2.05714">
        <ele>134.241211</ele>
        <time>2014-05-08T15:56:35Z</time>
      </trkpt>
      <trkpt lat="48.69546" lon="2.05718">
        <ele>135.683105</ele>
        <time>2014-05-08T15:57:09Z</time>
      </trkpt>
      <trkpt lat="48.69539" lon="2.05712">
        <ele>137.605835</ele>
        <time>2014-05-08T15:57:37Z</time>
      </trkpt>
      <trkpt lat="48.69551" lon="2.05714">
        <ele>139.528442</ele>
        <time>2014-05-08T15:58:10Z</time>
      </trkpt>
      <trkpt lat="48.69546" lon="2.05725">
        <ele>141.45105</ele>
        <time>2014-05-08T15:58:46Z</time>
      </trkpt>
      <trkpt lat="48.69546" lon="2.05688">
        <ele>139.047852</ele>
        <time>2014-05-08T15:59:12Z</time>
      </trkpt>
      <trkpt lat="48.69531" lon="2.05677">
        <ele>139.047852</ele>
        <time>2014-05-08T15:59:37Z</time>
      </trkpt>
      <trkpt lat="48.69531" lon="2.05653">
        <ele>140.489868</ele>
        <time>2014-05-08T16:00:10Z</time>
      </trkpt>
      <trkpt lat="48.69518" lon="2.05656">
        <ele>141.45105</ele>
        <time>2014-05-08T16:00:34Z</time>
      </trkpt>
      <trkpt lat="48.69501" lon="2.05663">
        <ele>145.7771</ele>
        <time>2014-05-08T16:01:06Z</time>
      </trkpt>
      <trkpt lat="48.69499" lon="2.05653">
        <ele>146.257812</ele>
        <time>2014-05-08T16:01:58Z</time>
      </trkpt>
      <trkpt lat="48.69501" lon="2.0563">
        <ele>146.738403</ele>
        <time>2014-05-08T16:02:19Z</time>
      </trkpt>
      <trkpt lat="48.69501" lon="2.05601">
        <ele>146.738403</ele>
        <time>2014-05-08T16:02:40Z</time>
      </trkpt>
      <trkpt lat="48.69503" lon="2.05576">
        <ele>147.699707</ele>
        <time>2014-05-08T16:02:59Z</time>
      </trkpt>
      <trkpt lat="48.69513" lon="2.05546">
        <ele>149.141602</ele>
        <time>2014-05-08T16:03:25Z</time>
      </trkpt>
      <trkpt lat="48.69499" lon="2.05547">
        <ele>151.544922</ele>
        <time>2014-05-08T16:04:44Z</time>
      </trkpt>
      <trkpt lat="48.69481" lon="2.05535">
        <ele>152.025757</ele>
        <time>2014-05-08T16:05:04Z</time>
      </trkpt>
      <trkpt lat="48.69465" lon="2.05538">
        <ele>151.544922</ele>
        <time>2014-05-08T16:05:24Z</time>
      </trkpt>
      <trkpt lat="48.69449" lon="2.05513">
        <ele>151.544922</ele>
        <time>2014-05-08T16:06:09Z</time>
      </trkpt>
      <trkpt lat="48.69451" lon="2.05498">
        <ele>151.064209</ele>
        <time>2014-05-08T16:06:27Z</time>
      </trkpt>
      <trkpt lat="48.69445" lon="2.05484">
        <ele>151.064209</ele>
        <time>2014-05-08T16:06:42Z</time>
      </trkpt>
      <trkpt lat="48.69442" lon="2.05486">
        <ele>152.025757</ele>
        <time>2014-05-08T16:07:49Z</time>
      </trkpt>
      <trkpt lat="48.69456" lon="2.05476">
        <ele>153.467651</ele>
        <time>2014-05-08T16:08:13Z</time>
      </trkpt>
      <trkpt lat="48.69476" lon="2.05462">
        <ele>151.064209</ele>
        <time>2014-05-08T16:08:37Z</time>
      </trkpt>
      <trkpt lat="48.69507" lon="2.05444">
        <ele>150.583618</ele>
        <time>2014-05-08T16:08:59Z</time>
      </trkpt>
      <trkpt lat="48.6953" lon="2.05432">
        <ele>151.064209</ele>
        <time>2014-05-08T16:09:20Z</time>
      </trkpt>
      <trkpt lat="48.69543" lon="2.05423">
        <ele>152.986938</ele>
        <time>2014-05-08T16:09:40Z</time>
      </trkpt>
      <trkpt lat="48.69555" lon="2.05421">
        <ele>155.390259</ele>
        <time>2014-05-08T16:09:57Z</time>
      </trkpt>
      <trkpt lat="48.69565" lon="2.05412">
        <ele>155.390259</ele>
        <time>2014-05-08T16:10:10Z</time>
      </trkpt>
      <trkpt lat="48.69588" lon="2.05399">
        <ele>157.793579</ele>
        <time>2014-05-08T16:10:37Z</time>
      </trkpt>
      <trkpt lat="48.69623" lon="2.05387">
        <ele>159.716187</ele>
        <time>2014-05-08T16:11:04Z</time>
      </trkpt>
      <trkpt lat="48.69642" lon="2.05352">
        <ele>161.638916</ele>
        <time>2014-05-08T16:11:28Z</time>
      </trkpt>
      <trkpt lat="48.69644" lon="2.05302">
        <ele>163.080811</ele>
        <time>2014-05-08T16:11:57Z</time>
      </trkpt>
      <trkpt lat="48.6964" lon="2.05261">
        <ele>162.600098</ele>
        <time>2014-05-08T16:12:20Z</time>
      </trkpt>
      <trkpt lat="48.69645" lon="2.05215">
        <ele>163.080811</ele>
        <time>2014-05-08T16:12:48Z</time>
      </trkpt>
      <trkpt lat="48.69656" lon="2.05184">
        <ele>163.080811</ele>
        <time>2014-05-08T16:13:03Z</time>
      </trkpt>
      <trkpt lat="48.69654" lon="2.05143">
        <ele>161.638916</ele>
        <time>2014-05-08T16:13:25Z</time>
      </trkpt>
      <trkpt lat="48.69652" lon="2.05112">
        <ele>159.716187</ele>
        <time>2014-05-08T16:13:42Z</time>
      </trkpt>
      <trkpt lat="48.69648" lon="2.05091">
        <ele>160.67749</ele>
        <time>2014-05-08T16:13:58Z</time>
      </trkpt>
      <trkpt lat="48.69643" lon="2.05065">
        <ele>158.754761</ele>
        <time>2014-05-08T16:14:19Z</time>
      </trkpt>
      <trkpt lat="48.69642" lon="2.05037">
        <ele>157.793579</ele>
        <time>2014-05-08T16:14:41Z</time>
      </trkpt>
      <trkpt lat="48.69636" lon="2.04986">
        <ele>156.832153</ele>
        <time>2014-05-08T16:15:05Z</time>
      </trkpt>
      <trkpt lat="48.69641" lon="2.04955">
        <ele>157.312866</ele>
        <time>2014-05-08T16:15:22Z</time>
      </trkpt>
      <trkpt lat="48.6964" lon="2.04927">
        <ele>158.754761</ele>
        <time>2014-05-08T16:15:39Z</time>
      </trkpt>
      <trkpt lat="48.69637" lon="2.04899">
        <ele>157.793579</ele>
        <time>2014-05-08T16:16:02Z</time>
      </trkpt>
      <trkpt lat="48.69653" lon="2.04846">
        <ele>155.390259</ele>
        <time>2014-05-08T16:16:28Z</time>
      </trkpt>
      <trkpt lat="48.69654" lon="2.04803">
        <ele>154.909546</ele>
        <time>2014-05-08T16:16:51Z</time>
      </trkpt>
      <trkpt lat="48.69657" lon="2.04768">
        <ele>154.909546</ele>
        <time>2014-05-08T16:17:09Z</time>
      </trkpt>
      <trkpt lat="48.69652" lon="2.04738">
        <ele>154.909546</ele>
        <time>2014-05-08T16:17:29Z</time>
      </trkpt>
      <trkpt lat="48.69647" lon="2.04694">
        <ele>155.390259</ele>
        <time>2014-05-08T16:17:55Z</time>
      </trkpt>
      <trkpt lat="48.6964" lon="2.04665">
        <ele>158.27417</ele>
        <time>2014-05-08T16:18:17Z</time>
      </trkpt>
      <trkpt lat="48.6963" lon="2.04632">
        <ele>156.832153</ele>
        <time>2014-05-08T16:18:42Z</time>
      </trkpt>
      <trkpt lat="48.69627" lon="2.04589">
        <ele>154.428955</ele>
        <time>2014-05-08T16:19:08Z</time>
      </trkpt>
      <trkpt lat="48.69632" lon="2.04535">
        <ele>152.025757</ele>
        <time>2014-05-08T16:19:39Z</time>
      </trkpt>
      <trkpt lat="48.69637" lon="2.04485">
        <ele>150.103027</ele>
        <time>2014-05-08T16:20:04Z</time>
      </trkpt>
      <trkpt lat="48.69636" lon="2.04447">
        <ele>147.218994</ele>
        <time>2014-05-08T16:20:28Z</time>
      </trkpt>
      <trkpt lat="48.69635" lon="2.04404">
        <ele>144.815796</ele>
        <time>2014-05-08T16:20:51Z</time>
      </trkpt>
      <trkpt lat="48.69633" lon="2.04373">
        <ele>142.893066</ele>
        <time>2014-05-08T16:21:12Z</time>
      </trkpt>
      <trkpt lat="48.69642" lon="2.04338">
        <ele>142.893066</ele>
        <time>2014-05-08T16:21:28Z</time>
      </trkpt>
      <trkpt lat="48.69642" lon="2.04297">
        <ele>145.296387</ele>
        <time>2014-05-08T16:21:49Z</time>
      </trkpt>
      <trkpt lat="48.69644" lon="2.04258">
        <ele>145.296387</ele>
        <time>2014-05-08T16:22:15Z</time>
      </trkpt>
      <trkpt lat="48.69644" lon="2.04218">
        <ele>147.218994</ele>
        <time>2014-05-08T16:22:36Z</time>
      </trkpt>
      <trkpt lat="48.6964" lon="2.04173">
        <ele>147.699707</ele>
        <time>2014-05-08T16:23:02Z</time>
      </trkpt>
      <trkpt lat="48.6965" lon="2.04128">
        <ele>147.699707</ele>
        <time>2014-05-08T16:23:22Z</time>
      </trkpt>
      <trkpt lat="48.69652" lon="2.04082">
        <ele>151.064209</ele>
        <time>2014-05-08T16:23:45Z</time>
      </trkpt>
      <trkpt lat="48.69649" lon="2.04059">
        <ele>152.506348</ele>
        <time>2014-05-08T16:23:58Z</time>
      </trkpt>
      <trkpt lat="48.69651" lon="2.04038">
        <ele>154.428955</ele>
        <time>2014-05-08T16:24:12Z</time>
      </trkpt>
      <trkpt lat="48.69659" lon="2.03989">
        <ele>155.390259</ele>
        <time>2014-05-08T16:24:34Z</time>
      </trkpt>
      <trkpt lat="48.69657" lon="2.03954">
        <ele>156.832153</ele>
        <time>2014-05-08T16:24:54Z</time>
      </trkpt>
      <trkpt lat="48.69658" lon="2.03924">
        <ele>158.27417</ele>
        <time>2014-05-08T16:25:13Z</time>
      </trkpt>
      <trkpt lat="48.69661" lon="2.03883">
        <ele>158.754761</ele>
        <time>2014-05-08T16:25:34Z</time>
      </trkpt>
      <trkpt lat="48.69657" lon="2.03849">
        <ele>160.67749</ele>
        <time>2014-05-08T16:25:51Z</time>
      </trkpt>
      <trkpt lat="48.69647" lon="2.03809">
        <ele>163.080811</ele>
        <time>2014-05-08T16:26:10Z</time>
      </trkpt>
      <trkpt lat="48.69644" lon="2.03817">
        <ele>161.638916</ele>
        <time>2014-05-08T16:26:14Z</time>
      </trkpt>
      <trkpt lat="48.69629" lon="2.03815">
        <ele>158.754761</ele>
        <time>2014-05-08T16:26:29Z</time>
      </trkpt>
      <trkpt lat="48.69603" lon="2.03791">
        <ele>158.754761</ele>
        <time>2014-05-08T16:26:52Z</time>
      </trkpt>
      <trkpt lat="48.69576" lon="2.0377">
        <ele>158.27417</ele>
        <time>2014-05-08T16:27:13Z</time>
      </trkpt>
      <trkpt lat="48.69558" lon="2.03757">
        <ele>159.716187</ele>
        <time>2014-05-08T16:27:28Z</time>
      </trkpt>
      <trkpt lat="48.69538" lon="2.03737">
        <ele>160.196899</ele>
        <time>2014-05-08T16:27:49Z</time>
      </trkpt>
      <trkpt lat="48.69518" lon="2.03722">
        <ele>160.196899</ele>
        <time>2014-05-08T16:28:10Z</time>
      </trkpt>
      <trkpt lat="48.69508" lon="2.03716">
        <ele>160.67749</ele>
        <time>2014-05-08T16:28:20Z</time>
      </trkpt>
      <trkpt lat="48.69486" lon="2.03717">
        <ele>161.638916</ele>
        <time>2014-05-08T16:28:43Z</time>
      </trkpt>
      <trkpt lat="48.69484" lon="2.03718">
        <ele>162.600098</ele>
        <time>2014-05-08T16:29:09Z</time>
      </trkpt>
    </trkseg>
  </trk>
</gpx>